Time;durP1;ratioP1;P1;durP2;ratioP2;P2;SDS_P1;SDS_P2;PMS_P1;PMS_P2;Temp;Humidity;BMP_temperature;BMP_pressure;BME280_temperature;BME280_humidity;BME280_pressure;Samples;Min_cycle;Max_cycle;Signal;HPM_P1;HPM_P2
2023/12/28 00:02:15;;;;;;;1.43;1.07;;;11.20;99.90;;;;;;5038679;28;20234;-75
2023/12/28 00:04:41;;;;;;;1.43;1.30;;;11.20;99.90;;;;;;5058690;28;20168;-75
2023/12/28 00:07:06;;;;;;;2.40;1.30;;;11.20;99.90;;;;;;5053504;28;20685;-75
2023/12/28 00:09:32;;;;;;;3.43;1.50;;;11.20;99.90;;;;;;5073319;28;20163;-76
2023/12/28 00:11:58;;;;;;;1.97;1.30;;;11.10;99.90;;;;;;5073145;28;20240;-75
2023/12/28 00:14:24;;;;;;;1.40;1.30;;;11.10;99.90;;;;;;5073259;28;20190;-75
2023/12/28 00:16:50;;;;;;;1.90;1.30;;;11.10;99.90;;;;;;5066988;28;20461;-74
2023/12/28 00:19:15;;;;;;;1.27;1.17;;;11.10;99.90;;;;;;5056770;28;20183;-75
2023/12/28 00:21:41;;;;;;;1.50;1.20;;;11.10;99.90;;;;;;5051721;28;20174;-75
2023/12/28 00:24:06;;;;;;;1.40;1.10;;;11.10;99.90;;;;;;5066721;28;20172;-74
2023/12/28 00:26:32;;;;;;;2.03;1.37;;;11.10;99.90;;;;;;5058191;28;20178;-75
2023/12/28 00:28:57;;;;;;;1.50;1.40;;;11.00;99.90;;;;;;5073265;28;20283;-75
2023/12/28 00:31:23;;;;;;;2.10;1.53;;;11.00;99.90;;;;;;5069881;28;20699;-75
2023/12/28 00:33:50;;;;;;;1.63;1.03;;;11.00;99.90;;;;;;5051154;28;20198;-74
2023/12/28 00:36:16;;;;;;;1.43;1.30;;;10.90;99.90;;;;;;5055145;28;20543;-74
2023/12/28 00:38:41;;;;;;;1.40;1.10;;;10.90;99.90;;;;;;5072869;28;20405;-76
2023/12/28 00:41:07;;;;;;;1.80;1.40;;;10.90;99.90;;;;;;5060108;28;20443;-75
2023/12/28 00:43:32;;;;;;;1.50;1.40;;;10.80;99.90;;;;;;5070743;28;20604;-75
2023/12/28 00:45:58;;;;;;;1.70;1.20;;;10.80;99.90;;;;;;5044965;28;20201;-76
2023/12/28 00:48:23;;;;;;;2.00;1.57;;;10.70;99.90;;;;;;5042124;28;20236;-76
2023/12/28 00:50:49;;;;;;;2.93;1.23;;;10.70;99.90;;;;;;5066560;28;20585;-76
2023/12/28 00:53:15;;;;;;;1.97;1.30;;;10.70;99.90;;;;;;5072259;28;20229;-75
2023/12/28 00:55:40;;;;;;;2.10;1.30;;;10.70;99.90;;;;;;5071222;28;20196;-76
2023/12/28 00:58:06;;;;;;;1.73;1.63;;;10.70;99.90;;;;;;5059162;28;20167;-75
2023/12/28 01:00:31;;;;;;;1.83;1.07;;;10.70;99.90;;;;;;5052366;28;20178;-75
2023/12/28 01:02:57;;;;;;;1.00;0.90;;;10.70;99.90;;;;;;5043404;28;20270;-75
2023/12/28 01:05:25;;;;;;;1.13;1.03;;;10.70;99.90;;;;;;5055775;28;20660;-75
2023/12/28 01:07:51;;;;;;;1.47;1.37;;;10.70;99.90;;;;;;5072246;28;20196;-75
2023/12/28 01:10:17;;;;;;;2.80;1.37;;;10.70;99.90;;;;;;5072234;28;20434;-75
2023/12/28 01:12:42;;;;;;;1.70;1.03;;;10.70;99.90;;;;;;5071927;28;20194;-75
2023/12/28 01:15:08;;;;;;;1.90;1.40;;;10.70;99.90;;;;;;5072215;28;20162;-75
2023/12/28 01:17:33;;;;;;;1.30;1.17;;;10.80;99.90;;;;;;5056510;28;20227;-75
2023/12/28 01:19:59;;;;;;;1.10;0.97;;;10.80;99.90;;;;;;5058448;28;20166;-75
2023/12/28 01:22:24;;;;;;;1.67;1.27;;;10.80;99.90;;;;;;5055306;28;20190;-75
2023/12/28 01:24:50;;;;;;;1.70;1.30;;;10.80;99.90;;;;;;5072081;28;20166;-75
2023/12/28 01:27:16;;;;;;;1.83;1.30;;;10.70;99.90;;;;;;5072168;28;20529;-75
2023/12/28 01:29:42;;;;;;;1.50;1.40;;;10.70;99.90;;;;;;5072058;28;20208;-75
2023/12/28 01:32:07;;;;;;;2.60;1.23;;;10.70;99.90;;;;;;5058788;28;20980;-74
2023/12/28 01:34:33;;;;;;;2.67;1.20;;;10.80;99.90;;;;;;5066842;28;20641;-74
2023/12/28 01:36:58;;;;;;;1.93;1.70;;;10.80;99.90;;;;;;5071897;28;20167;-75
2023/12/28 01:39:24;;;;;;;5.27;1.20;;;10.80;99.90;;;;;;5072044;28;20163;-75
2023/12/28 01:41:49;;;;;;;6.33;1.80;;;10.80;99.90;;;;;;5071767;28;20532;-74
2023/12/28 01:44:15;;;;;;;2.50;1.63;;;10.80;99.90;;;;;;5071806;28;20170;-75
2023/12/28 01:46:41;;;;;;;1.40;1.30;;;10.80;99.90;;;;;;5064994;28;20231;-75
2023/12/28 01:49:07;;;;;;;1.40;1.17;;;10.80;99.90;;;;;;5063222;28;20181;-75
2023/12/28 01:51:33;;;;;;;1.37;1.03;;;10.80;99.90;;;;;;5071718;28;20272;-75
2023/12/28 01:53:59;;;;;;;1.40;1.20;;;10.80;99.90;;;;;;5063668;28;20497;-75
2023/12/28 01:56:25;;;;;;;1.47;1.37;;;10.90;99.90;;;;;;5071251;28;20405;-75
2023/12/28 01:58:52;;;;;;;3.70;1.90;;;10.90;99.90;;;;;;5070679;28;20950;-75
2023/12/28 02:01:18;;;;;;;2.03;1.63;;;10.90;99.90;;;;;;5058286;28;20427;-75
2023/12/28 02:03:44;;;;;;;1.97;1.70;;;10.90;99.90;;;;;;5071454;28;20428;-75
2023/12/28 02:06:10;;;;;;;2.17;1.30;;;10.90;99.90;;;;;;5050709;28;20183;-75
2023/12/28 02:08:35;;;;;;;1.57;1.30;;;10.80;99.90;;;;;;5071522;28;20458;-75
2023/12/28 02:11:01;;;;;;;1.33;1.20;;;10.80;99.90;;;;;;5071500;28;20451;-75
2023/12/28 02:13:26;;;;;;;3.73;2.00;;;10.80;99.90;;;;;;5071498;28;20673;-74
2023/12/28 02:15:59;;;;;;;2.53;1.80;;;10.70;99.90;;;;;;5056461;28;20293;-75
2023/12/28 02:18:32;;;;;;;2.93;1.90;;;10.70;99.90;;;;;;5075639;28;20170;-75
2023/12/28 02:20:59;;;;;;;1.53;1.40;;;10.70;99.90;;;;;;5075570;28;20407;-74
2023/12/28 02:23:24;;;;;;;1.70;1.57;;;10.70;99.90;;;;;;5070244;28;20444;-75
2023/12/28 02:25:50;;;;;;;1.83;1.63;;;10.70;99.90;;;;;;5075477;28;20435;-76
2023/12/28 02:28:15;;;;;;;1.80;1.30;;;10.80;99.90;;;;;;5067028;28;20180;-75
2023/12/28 02:30:41;;;;;;;2.87;1.40;;;10.80;99.90;;;;;;5063047;28;20186;-75
2023/12/28 02:33:29;;;;;;;2.70;1.90;;;10.70;99.90;;;;;;5075104;28;20255;-74
2023/12/28 02:36:04;;;;;;;1.90;1.80;;;10.70;99.90;;;;;;5073962;28;20645;-75
2023/12/28 02:38:30;;;;;;;1.63;1.53;;;10.70;99.90;;;;;;5069833;28;20432;-75
2023/12/28 02:40:57;;;;;;;2.07;1.60;;;10.70;99.90;;;;;;5074855;28;20401;-75
2023/12/28 02:43:23;;;;;;;2.80;1.57;;;10.60;99.90;;;;;;5060841;28;20470;-75
2023/12/28 02:45:48;;;;;;;3.20;1.43;;;10.70;99.90;;;;;;5069445;28;20424;-75
2023/12/28 02:48:14;;;;;;;4.83;2.17;;;10.60;99.90;;;;;;5074890;28;20206;-75
2023/12/28 02:50:39;;;;;;;1.97;1.20;;;10.60;99.90;;;;;;5066400;28;20257;-75
2023/12/28 02:53:05;;;;;;;1.43;1.30;;;10.60;99.90;;;;;;5074373;28;20293;-76
2023/12/28 02:55:30;;;;;;;2.97;1.70;;;10.70;99.90;;;;;;5074750;28;20166;-75
2023/12/28 02:57:59;;;;;;;1.60;1.23;;;10.70;99.90;;;;;;5064723;28;20174;-74
2023/12/28 03:00:25;;;;;;;1.47;1.33;;;10.70;99.90;;;;;;5061987;28;20201;-75
2023/12/28 03:02:51;;;;;;;2.37;1.47;;;10.70;99.90;;;;;;5074323;28;20787;-75
2023/12/28 03:05:16;;;;;;;2.00;1.23;;;10.70;99.90;;;;;;5059353;28;20425;-75
2023/12/28 03:07:42;;;;;;;2.13;1.00;;;10.80;99.90;;;;;;5058965;28;20217;-74
2023/12/28 03:10:09;;;;;;;1.40;1.13;;;10.80;99.90;;;;;;5068167;28;20167;-75
2023/12/28 03:12:35;;;;;;;1.33;1.17;;;10.80;99.90;;;;;;5072970;28;20456;-75
2023/12/28 03:15:00;;;;;;;1.40;1.30;;;10.80;99.90;;;;;;5068557;28;20439;-74
2023/12/28 03:17:26;;;;;;;1.60;1.50;;;10.70;99.90;;;;;;5073060;28;20253;-75
2023/12/28 03:19:51;;;;;;;1.60;1.50;;;10.70;99.90;;;;;;5074545;28;20241;-75
2023/12/28 03:22:17;;;;;;;2.13;1.43;;;10.60;99.90;;;;;;5063080;28;20202;-75
2023/12/28 03:24:43;;;;;;;1.40;1.30;;;10.60;99.90;;;;;;5068714;28;20174;-74
2023/12/28 03:27:09;;;;;;;1.67;1.50;;;10.40;99.90;;;;;;5073958;28;20174;-76
2023/12/28 03:29:34;;;;;;;1.70;1.60;;;10.40;99.90;;;;;;5061018;28;20761;-76
2023/12/28 03:32:00;;;;;;;1.70;1.43;;;10.30;99.90;;;;;;5061832;28;20198;-75
2023/12/28 03:34:26;;;;;;;1.40;1.20;;;10.20;99.90;;;;;;5074011;28;20198;-76
2023/12/28 03:36:53;;;;;;;1.87;1.40;;;10.20;99.90;;;;;;5064669;28;20215;-76
2023/12/28 03:39:19;;;;;;;1.30;1.10;;;10.20;99.90;;;;;;5074010;28;20462;-76
2023/12/28 03:41:44;;;;;;;1.13;1.03;;;10.20;99.90;;;;;;5068064;28;20429;-76
2023/12/28 03:44:10;;;;;;;2.27;1.77;;;10.20;99.90;;;;;;5066961;28;20437;-76
2023/12/28 03:46:35;;;;;;;3.47;1.30;;;10.10;99.90;;;;;;5071035;28;20170;-75
2023/12/28 03:49:01;;;;;;;2.23;1.63;;;10.10;99.90;;;;;;5053795;28;20167;-75
2023/12/28 03:51:26;;;;;;;5.23;1.40;;;10.10;99.90;;;;;;5060867;28;20549;-76
2023/12/28 03:53:52;;;;;;;2.30;1.20;;;10.00;99.90;;;;;;5067274;28;20205;-76
2023/12/28 03:56:25;;;;;;;1.63;1.20;;;10.10;99.90;;;;;;5059636;28;20183;-75
2023/12/28 03:58:51;;;;;;;1.50;1.40;;;10.00;99.90;;;;;;5073733;28;20180;-75
2023/12/28 04:01:21;;;;;;;2.57;1.60;;;10.00;99.90;;;;;;5056372;28;20425;-75
2023/12/28 04:03:48;;;;;;;1.97;1.40;;;10.00;99.90;;;;;;5072127;28;20974;-76
2023/12/28 04:06:14;;;;;;;6.30;1.70;;;10.00;99.90;;;;;;5070491;28;20435;-75
2023/12/28 04:08:41;;;;;;;1.53;1.20;;;9.90;99.90;;;;;;5064654;28;20513;-75
2023/12/28 04:11:06;;;;;;;1.67;1.33;;;9.90;99.90;;;;;;5073147;28;20413;-75
2023/12/28 04:13:32;;;;;;;1.03;0.93;;;9.90;99.90;;;;;;5071880;28;20468;-75
2023/12/28 04:15:57;;;;;;;1.43;1.33;;;10.00;99.90;;;;;;5051173;28;20175;-75
2023/12/28 04:18:23;;;;;;;1.40;1.10;;;9.90;99.90;;;;;;5065640;28;20178;-75
2023/12/28 04:20:49;;;;;;;1.50;1.30;;;9.80;99.90;;;;;;5067550;28;20163;-75
2023/12/28 04:23:14;;;;;;;1.87;1.27;;;9.80;99.90;;;;;;5069966;28;20264;-75
2023/12/28 04:25:40;;;;;;;2.43;2.07;;;9.80;99.90;;;;;;5062066;28;20227;-75
2023/12/28 04:28:06;;;;;;;1.57;1.47;;;9.80;99.90;;;;;;5073071;28;20614;-75
2023/12/28 04:30:32;;;;;;;5.53;1.40;;;9.80;99.90;;;;;;5055549;28;20174;-75
2023/12/28 04:32:58;;;;;;;2.10;1.43;;;9.80;99.90;;;;;;5072463;28;20543;-74
2023/12/28 04:35:23;;;;;;;3.23;1.10;;;9.90;99.90;;;;;;5072788;28;20171;-75
2023/12/28 04:37:49;;;;;;;1.40;1.30;;;9.90;99.90;;;;;;5063113;28;20183;-75
2023/12/28 04:40:14;;;;;;;1.40;1.27;;;9.80;99.90;;;;;;5069688;28;20219;-75
2023/12/28 04:42:40;;;;;;;2.57;1.00;;;9.80;99.90;;;;;;5072591;28;20558;-74
2023/12/28 04:45:07;;;;;;;2.63;1.33;;;9.80;99.90;;;;;;5061277;28;20232;-74
2023/12/28 04:47:32;;;;;;;1.87;1.50;;;9.70;99.90;;;;;;5072540;28;20507;-74
2023/12/28 04:49:58;;;;;;;2.40;1.40;;;9.70;99.90;;;;;;5072643;28;20492;-74
2023/12/28 04:52:23;;;;;;;2.10;1.63;;;9.70;99.90;;;;;;5063121;28;20218;-73
2023/12/28 04:54:49;;;;;;;1.57;1.40;;;9.70;99.90;;;;;;5072451;28;20208;-74
2023/12/28 04:57:15;;;;;;;1.43;1.20;;;9.80;99.90;;;;;;5070254;28;20170;-74
2023/12/28 04:59:40;;;;;;;3.00;1.17;;;9.70;99.90;;;;;;5062429;28;20537;-74
2023/12/28 05:02:06;;;;;;;1.50;1.40;;;9.70;99.90;;;;;;5072116;28;20423;-75
2023/12/28 05:04:32;;;;;;;2.07;1.40;;;9.60;99.90;;;;;;5072329;28;20884;-75
2023/12/28 05:06:57;;;;;;;1.77;1.47;;;9.50;99.90;;;;;;5072423;28;20896;-75
2023/12/28 05:09:23;;;;;;;1.97;1.50;;;9.60;99.90;;;;;;5062759;28;20192;-75
2023/12/28 05:11:49;;;;;;;1.10;1.00;;;9.50;99.90;;;;;;5072039;28;20174;-75
2023/12/28 05:14:14;;;;;;;1.57;1.13;;;9.40;99.90;;;;;;5057508;28;20206;-75
2023/12/28 05:16:40;;;;;;;7.50;4.40;;;9.40;99.90;;;;;;5072253;28;20210;-75
2023/12/28 05:19:05;;;;;;;5.57;4.30;;;9.30;99.90;;;;;;5072246;28;20533;-75
2023/12/28 05:21:30;;;;;;;2.10;1.60;;;9.30;99.90;;;;;;5063964;28;20204;-71
2023/12/28 05:23:56;;;;;;;1.63;1.30;;;9.20;99.90;;;;;;5061416;28;20195;-71
2023/12/28 05:26:23;;;;;;;3.13;1.47;;;9.20;99.90;;;;;;5067494;28;20229;-71
2023/12/28 05:28:48;;;;;;;2.60;1.37;;;9.10;99.90;;;;;;5058900;28;20277;-71
2023/12/28 05:31:14;;;;;;;4.50;2.20;;;9.10;99.90;;;;;;5071701;28;20503;-70
2023/12/28 05:33:39;;;;;;;2.47;2.00;;;9.10;99.90;;;;;;5071749;28;20743;-71
2023/12/28 05:36:06;;;;;;;3.03;2.53;;;9.00;99.90;;;;;;5072012;28;20162;-70
2023/12/28 05:38:32;;;;;;;4.40;1.83;;;9.00;99.90;;;;;;5041711;28;20241;-71
2023/12/28 05:40:57;;;;;;;2.03;1.63;;;9.00;99.90;;;;;;5044792;28;20429;-70
2023/12/28 05:43:23;;;;;;;1.63;1.53;;;8.90;99.90;;;;;;5061719;28;20509;-71
2023/12/28 05:45:48;;;;;;;1.50;1.33;;;9.00;99.90;;;;;;5070640;28;20629;-71
2023/12/28 05:48:14;;;;;;;1.90;1.63;;;9.00;99.90;;;;;;5070334;28;20181;-71
2023/12/28 05:50:39;;;;;;;2.47;1.50;;;8.90;99.90;;;;;;5071840;28;20173;-71
2023/12/28 05:53:05;;;;;;;1.47;1.30;;;9.00;99.90;;;;;;5060180;28;20214;-71
2023/12/28 05:55:30;;;;;;;1.83;1.67;;;9.00;99.90;;;;;;5071641;28;20204;-71
2023/12/28 05:57:56;;;;;;;2.23;1.47;;;9.10;99.90;;;;;;5065742;28;20665;-70
2023/12/28 06:00:22;;;;;;;4.17;1.40;;;9.10;99.90;;;;;;5071587;28;20173;-71
2023/12/28 06:02:51;;;;;;;3.73;2.00;;;9.10;99.90;;;;;;5071369;28;20198;-71
2023/12/28 06:05:17;;;;;;;2.30;1.50;;;9.20;99.90;;;;;;5071720;28;20177;-71
2023/12/28 06:07:42;;;;;;;1.47;1.37;;;9.30;99.90;;;;;;5063253;28;20436;-71
2023/12/28 06:10:08;;;;;;;9.80;1.80;;;9.40;99.90;;;;;;5064414;28;20445;-70
2023/12/28 06:12:35;;;;;;;4.20;1.57;;;9.40;99.90;;;;;;5064116;28;20199;-71
2023/12/28 06:15:01;;;;;;;1.90;1.60;;;9.50;99.90;;;;;;5060432;28;20530;-71
2023/12/28 06:17:26;;;;;;;2.67;1.50;;;9.60;99.90;;;;;;5071501;28;20489;-71
2023/12/28 06:19:52;;;;;;;3.13;1.67;;;9.70;99.90;;;;;;5071636;28;20851;-71
2023/12/28 06:22:17;;;;;;;1.20;1.07;;;9.80;99.90;;;;;;5051092;28;20198;-71
2023/12/28 06:24:43;;;;;;;1.50;1.20;;;9.90;99.90;;;;;;5047254;28;20255;-71
2023/12/28 06:27:09;;;;;;;2.13;1.20;;;9.90;99.90;;;;;;5063804;28;20577;-71
2023/12/28 06:29:34;;;;;;;1.57;1.47;;;10.00;99.90;;;;;;5049433;28;20179;-71
2023/12/28 06:32:00;;;;;;;4.00;1.07;;;9.90;99.90;;;;;;5045468;28;20203;-71
2023/12/28 06:34:26;;;;;;;3.83;1.20;;;9.90;99.90;;;;;;5050113;28;20218;-71
2023/12/28 06:36:52;;;;;;;1.50;1.03;;;9.90;99.90;;;;;;5057469;28;20190;-72
2023/12/28 06:39:17;;;;;;;6.50;1.53;;;9.90;99.90;;;;;;5071332;28;20832;-72
2023/12/28 06:41:46;;;;;;;1.30;1.00;;;10.00;99.90;;;;;;5066240;28;20170;-72
2023/12/28 06:44:13;;;;;;;1.97;1.03;;;9.90;99.90;;;;;;5047749;28;20550;-72
2023/12/28 06:46:39;;;;;;;1.30;1.10;;;9.90;99.90;;;;;;5062913;28;20452;-72
2023/12/28 06:49:05;;;;;;;2.70;1.33;;;10.00;99.90;;;;;;5052264;28;20464;-71
2023/12/28 06:51:31;;;;;;;2.07;1.30;;;10.00;99.90;;;;;;5067679;28;20170;-72
2023/12/28 06:53:57;;;;;;;2.70;1.50;;;10.10;99.90;;;;;;5056196;28;21016;-72
2023/12/28 06:56:22;;;;;;;2.47;1.93;;;10.10;99.90;;;;;;5070974;28;20253;-72
2023/12/28 06:58:48;;;;;;;3.87;1.60;;;10.10;99.90;;;;;;5058344;28;20196;-71
2023/12/28 07:01:13;;;;;;;3.60;1.70;;;10.10;99.90;;;;;;5059781;28;20185;-72
2023/12/28 07:03:39;;;;;;;1.77;1.30;;;10.10;99.90;;;;;;5066489;28;20657;-71
2023/12/28 07:06:05;;;;;;;2.60;1.80;;;10.00;99.90;;;;;;5065220;28;20301;-72
2023/12/28 07:08:31;;;;;;;3.00;2.10;;;10.00;99.90;;;;;;5057630;28;20542;-71
2023/12/28 07:10:57;;;;;;;2.20;1.30;;;9.90;99.90;;;;;;5053992;28;20923;-71
2023/12/28 07:13:22;;;;;;;1.57;0.97;;;9.90;99.90;;;;;;5060588;28;20187;-71
2023/12/28 07:15:48;;;;;;;2.17;1.47;;;9.80;99.90;;;;;;5056432;28;20457;-72
2023/12/28 07:18:14;;;;;;;4.47;1.80;;;9.70;99.90;;;;;;5066388;28;20182;-72
2023/12/28 07:20:39;;;;;;;3.00;1.97;;;9.70;99.90;;;;;;5055774;28;20435;-71
2023/12/28 07:23:05;;;;;;;1.80;1.30;;;9.70;99.90;;;;;;5050930;28;20198;-72
2023/12/28 07:25:31;;;;;;;1.40;1.20;;;9.70;99.90;;;;;;5057725;28;20183;-71
2023/12/28 07:27:56;;;;;;;5.33;1.90;;;9.60;99.90;;;;;;5050994;28;20194;-72
2023/12/28 07:30:22;;;;;;;1.80;1.70;;;9.60;99.90;;;;;;5043474;28;20184;-72
2023/12/28 07:32:47;;;;;;;4.73;2.10;;;9.60;99.90;;;;;;5040034;28;20211;-72
2023/12/28 07:35:13;;;;;;;4.07;1.70;;;9.60;99.90;;;;;;5058333;28;20183;-72
2023/12/28 07:37:38;;;;;;;3.27;1.10;;;9.60;99.90;;;;;;5062628;28;20201;-72
2023/12/28 07:40:04;;;;;;;2.63;1.37;;;9.60;99.90;;;;;;5066122;28;20286;-71
2023/12/28 07:42:30;;;;;;;1.47;1.20;;;9.70;99.90;;;;;;5069412;28;20204;-72
2023/12/28 07:44:56;;;;;;;3.20;1.53;;;9.70;99.90;;;;;;5046572;28;20505;-71
2023/12/28 07:47:21;;;;;;;1.40;1.30;;;9.80;99.90;;;;;;5061114;28;20189;-71
2023/12/28 07:49:47;;;;;;;1.37;1.23;;;9.80;99.90;;;;;;5063308;28;20670;-71
2023/12/28 07:52:12;;;;;;;2.00;1.10;;;9.80;99.90;;;;;;5045399;28;20329;-71
2023/12/28 07:54:38;;;;;;;1.97;1.17;;;9.90;99.90;;;;;;5046673;28;20659;-71
2023/12/28 07:57:04;;;;;;;1.80;1.10;;;9.90;99.90;;;;;;5046387;28;20194;-70
2023/12/28 07:59:30;;;;;;;4.30;1.80;;;9.90;99.90;;;;;;5040808;28;20628;-72
2023/12/28 08:01:56;;;;;;;2.53;1.50;;;9.90;99.90;;;;;;5050967;28;20492;-70
2023/12/28 08:04:21;;;;;;;1.17;1.03;;;10.00;99.90;;;;;;5048414;28;20236;-72
2023/12/28 08:06:47;;;;;;;1.90;1.17;;;10.00;99.90;;;;;;5045330;28;20407;-75
2023/12/28 08:09:12;;;;;;;3.30;1.40;;;10.10;99.90;;;;;;5049781;28;20179;-75
2023/12/28 08:11:38;;;;;;;2.00;1.70;;;10.00;99.90;;;;;;5051812;28;20178;-75
2023/12/28 08:14:04;;;;;;;2.27;1.33;;;10.10;99.90;;;;;;5049084;28;20198;-75
2023/12/28 08:16:29;;;;;;;2.63;1.70;;;10.10;99.90;;;;;;5051957;28;20226;-75
2023/12/28 08:18:55;;;;;;;1.80;1.47;;;10.20;99.90;;;;;;5052144;28;20167;-75
2023/12/28 08:21:20;;;;;;;2.10;1.37;;;10.30;99.90;;;;;;5047892;28;20187;-75
2023/12/28 08:23:46;;;;;;;1.93;1.47;;;10.30;99.90;;;;;;5052343;28;20562;-75
2023/12/28 08:26:11;;;;;;;2.67;1.20;;;10.30;99.90;;;;;;5058417;28;20665;-74
2023/12/28 08:28:37;;;;;;;1.60;1.27;;;10.30;99.90;;;;;;5068645;28;22047;-74
2023/12/28 08:31:03;;;;;;;3.47;1.50;;;10.40;99.90;;;;;;5065364;28;20546;-74
2023/12/28 08:33:28;;;;;;;1.30;1.17;;;10.40;99.90;;;;;;5071386;28;20198;-74
2023/12/28 08:35:54;;;;;;;3.87;2.00;;;10.50;99.90;;;;;;5057814;28;20174;-75
2023/12/28 08:38:19;;;;;;;2.47;1.40;;;10.40;99.90;;;;;;5061737;28;20183;-74
2023/12/28 08:40:45;;;;;;;2.10;1.57;;;10.50;99.90;;;;;;5066968;28;20177;-74
2023/12/28 08:43:11;;;;;;;4.20;1.87;;;10.50;99.90;;;;;;5063575;28;20198;-74
2023/12/28 08:45:36;;;;;;;3.47;1.20;;;10.50;99.90;;;;;;5058304;28;20178;-74
2023/12/28 08:48:03;;;;;;;5.67;1.47;;;10.60;99.90;;;;;;5068729;28;20182;-74
2023/12/28 08:50:28;;;;;;;2.50;1.37;;;10.70;99.90;;;;;;5059942;28;20195;-74
2023/12/28 08:52:54;;;;;;;4.63;1.50;;;10.80;99.90;;;;;;5054508;28;20460;-74
2023/12/28 08:55:21;;;;;;;3.97;1.73;;;10.80;99.90;;;;;;5047704;28;20171;-74
2023/12/28 08:57:46;;;;;;;2.67;2.20;;;10.90;99.90;;;;;;5055867;28;20170;-74
2023/12/28 09:00:14;;;;;;;2.70;1.90;;;11.00;99.90;;;;;;5050789;28;20436;-74
2023/12/28 09:02:40;;;;;;;3.37;1.63;;;11.00;99.90;;;;;;5042797;28;20806;-74
2023/12/28 09:05:06;;;;;;;7.93;2.20;;;11.20;99.90;;;;;;5049546;28;20900;-75
2023/12/28 09:07:32;;;;;;;8.37;1.70;;;11.30;99.90;;;;;;5048209;28;20811;-75
2023/12/28 09:09:58;;;;;;;5.67;1.87;;;11.30;99.90;;;;;;5063885;28;20420;-74
2023/12/28 09:12:23;;;;;;;2.60;1.27;;;11.20;99.90;;;;;;5071920;28;20186;-75
2023/12/28 09:14:52;;;;;;;1.10;0.90;;;11.30;99.90;;;;;;5060315;28;20164;-74
2023/12/28 09:17:20;;;;;;;2.87;1.67;;;11.40;99.90;;;;;;5062962;28;20583;-75
2023/12/28 09:19:46;;;;;;;3.70;1.30;;;11.50;99.90;;;;;;5062185;28;20509;-74
2023/12/28 09:22:11;;;;;;;6.10;1.73;;;11.60;99.90;;;;;;5050056;28;22631;-75
2023/12/28 09:24:37;;;;;;;7.30;1.40;;;11.90;99.90;;;;;;5069639;28;20205;-75
2023/12/28 09:27:03;;;;;;;1.97;1.20;;;12.00;99.90;;;;;;5072064;28;20249;-75
2023/12/28 09:29:28;;;;;;;8.70;2.03;;;12.10;99.90;;;;;;5068746;28;20659;-75
2023/12/28 09:31:54;;;;;;;5.83;1.70;;;12.20;99.90;;;;;;5038047;28;20261;-75
2023/12/28 09:34:19;;;;;;;3.53;1.10;;;12.40;99.90;;;;;;5050207;28;20684;-75
2023/12/28 09:36:45;;;;;;;2.60;1.40;;;12.40;99.90;;;;;;5051428;28;20185;-73
2023/12/28 09:39:11;;;;;;;3.80;2.13;;;12.50;99.90;;;;;;5043486;28;20665;-74
2023/12/28 09:41:42;;;;;;;2.57;1.70;;;12.40;99.90;;;;;;5060752;28;20249;-74
2023/12/28 09:44:11;;;;;;;1.93;1.20;;;12.50;99.90;;;;;;5051726;28;20405;-74
2023/12/28 09:46:38;;;;;;;2.03;1.40;;;12.60;99.90;;;;;;5047459;28;20846;-74
2023/12/28 09:49:04;;;;;;;5.07;1.43;;;12.50;99.90;;;;;;5050617;28;20432;-74
2023/12/28 09:51:30;;;;;;;3.33;2.13;;;12.70;99.90;;;;;;5041738;28;20464;-74
2023/12/28 09:53:56;;;;;;;2.33;1.30;;;12.90;99.90;;;;;;5038730;28;20511;-74
2023/12/28 09:56:23;;;;;;;3.13;1.30;;;13.30;99.90;;;;;;5052902;28;20456;-74
2023/12/28 09:58:50;;;;;;;3.03;1.47;;;13.70;99.90;;;;;;5053099;28;21043;-74
2023/12/28 10:01:17;;;;;;;5.10;1.80;;;14.80;99.90;;;;;;5062869;28;20447;-74
2023/12/28 10:03:43;;;;;;;1.47;1.00;;;15.10;99.90;;;;;;5051122;28;20446;-74
2023/12/28 10:06:09;;;;;;;4.30;1.30;;;15.50;99.90;;;;;;5061328;28;20511;-75
2023/12/28 10:08:35;;;;;;;4.43;2.60;;;16.00;99.90;;;;;;5043638;28;20486;-74
2023/12/28 10:11:02;;;;;;;6.03;1.90;;;16.90;99.90;;;;;;5065188;28;20428;-74
2023/12/28 10:13:28;;;;;;;5.03;2.00;;;17.10;98.90;;;;;;5046228;28;20547;-75
2023/12/28 10:15:57;;;;;;;2.97;2.13;;;17.90;98.70;;;;;;5065538;28;20455;-75
2023/12/28 10:18:23;;;;;;;6.60;1.50;;;18.10;93.00;;;;;;5071315;28;20189;-75
2023/12/28 10:20:52;;;;;;;7.17;2.00;;;18.20;92.10;;;;;;5053487;28;20524;-75
2023/12/28 10:23:19;;;;;;;3.40;1.70;;;18.50;89.50;;;;;;5053173;28;20456;-75
2023/12/28 10:25:45;;;;;;;2.53;1.80;;;18.20;85.00;;;;;;5059298;28;20457;-77
2023/12/28 10:28:15;;;;;;;1.90;1.57;;;18.30;84.80;;;;;;5046177;28;20519;-70
2023/12/28 10:30:41;;;;;;;4.07;1.73;;;18.10;82.00;;;;;;5044771;28;20441;-70
2023/12/28 10:33:07;;;;;;;2.10;1.43;;;18.70;80.80;;;;;;5058653;28;20452;-70
2023/12/28 10:35:33;;;;;;;2.30;1.33;;;19.10;79.30;;;;;;5072619;28;20166;-70
2023/12/28 10:38:02;;;;;;;4.30;1.87;;;19.50;75.10;;;;;;5063002;28;20428;-70
2023/12/28 10:40:27;;;;;;;2.17;1.10;;;19.80;72.10;;;;;;5075032;28;20404;-70
2023/12/28 10:43:06;;;;;;;4.00;1.60;;;19.80;68.50;;;;;;5074865;28;20446;-70
2023/12/28 10:45:34;;;;;;;3.83;1.60;;;19.50;67.90;;;;;;5060166;28;20196;-70
2023/12/28 10:48:07;;;;;;;2.40;1.47;;;20.20;68.30;;;;;;5075043;28;20447;-69
2023/12/28 10:50:46;;;;;;;4.77;1.40;;;21.00;66.70;;;;;;5068214;28;20444;-69
2023/12/28 10:53:44;;;;;;;2.70;1.73;;;21.30;59.30;;;;;;5070804;28;20472;-69
2023/12/28 10:56:27;;;;;;;2.23;1.53;;;21.60;58.70;;;;;;5058223;28;20520;-70
2023/12/28 10:59:03;;;;;;;1.77;1.47;;;22.00;55.80;;;;;;5064904;28;20490;-69
2023/12/28 11:01:33;;;;;;;3.73;1.63;;;21.80;54.70;;;;;;5065777;28;20418;-70
2023/12/28 11:04:08;;;;;;;4.07;2.17;;;21.60;55.00;;;;;;5067364;28;20463;-71
2023/12/28 11:06:34;;;;;;;2.90;1.63;;;21.20;53.90;;;;;;5074763;28;20416;-71
2023/12/28 11:09:01;;;;;;;9.43;1.83;;;20.90;54.40;;;;;;5057467;28;20423;-71
2023/12/28 11:11:27;;;;;;;3.13;1.70;;;21.40;55.00;;;;;;5067294;28;20822;-71
2023/12/28 11:13:55;;;;;;;2.00;1.70;;;21.50;52.90;;;;;;5060830;28;20866;-72
2023/12/28 11:16:22;;;;;;;2.10;1.70;;;21.70;53.40;;;;;;5064456;28;20408;-71
2023/12/28 11:18:49;;;;;;;3.07;1.67;;;22.30;52.70;;;;;;5074478;28;20408;-70
2023/12/28 11:21:16;;;;;;;2.80;1.60;;;22.60;51.90;;;;;;5073792;28;20415;-72
2023/12/28 11:23:43;;;;;;;2.43;2.00;;;23.00;50.40;;;;;;5065779;28;20437;-71
2023/12/28 11:26:22;;;;;;;2.63;1.77;;;23.20;49.30;;;;;;5060938;28;20444;-71
2023/12/28 11:28:47;;;;;;;3.83;1.87;;;23.40;48.50;;;;;;5048430;28;20462;-69
2023/12/28 11:31:17;;;;;;;2.13;1.50;;;24.00;48.80;;;;;;5067689;28;20463;-69
2023/12/28 11:33:47;;;;;;;2.30;2.10;;;23.90;48.50;;;;;;5074045;28;20194;-70
2023/12/28 11:36:35;;;;;;;3.10;1.83;;;24.40;47.50;;;;;;5074126;28;20404;-70
2023/12/28 11:42:25;;;;;;;3.80;2.03;;;25.40;46.70;;;;;;5062551;28;20489;-69
2023/12/28 11:44:56;;;;;;;1.90;1.80;;;26.10;43.10;;;;;;5060549;28;20451;-69
2023/12/28 11:47:24;;;;;;;5.00;2.30;;;26.00;42.20;;;;;;5073561;28;20408;-68
2023/12/28 11:49:54;;;;;;;3.63;2.30;;;25.90;42.50;;;;;;5061786;28;20484;-68
2023/12/28 11:52:30;;;;;;;2.50;2.30;;;26.50;42.70;;;;;;5067192;28;20445;-69
2023/12/28 11:54:56;;;;;;;3.97;2.63;;;26.00;41.20;;;;;;5060148;28;20953;-68
2023/12/28 11:57:22;;;;;;;4.27;2.50;;;25.20;41.30;;;;;;5038470;28;20426;-69
2023/12/28 11:59:53;;;;;;;3.30;2.60;;;24.60;41.60;;;;;;5061444;28;20190;-68
2023/12/28 12:02:19;;;;;;;3.60;2.33;;;24.00;41.70;;;;;;5073452;28;20428;-68
2023/12/28 12:04:44;;;;;;;1.90;1.80;;;23.30;41.60;;;;;;5073470;28;20458;-68
2023/12/28 12:07:10;;;;;;;4.37;2.00;;;22.20;42.50;;;;;;5073561;28;20171;-68
2023/12/28 12:09:35;;;;;;;1.70;1.57;;;21.10;44.80;;;;;;5063199;28;20527;-70
2023/12/28 12:12:02;;;;;;;3.50;2.87;;;20.50;45.60;;;;;;5070047;28;20194;-68
2023/12/28 12:14:28;;;;;;;3.60;1.93;;;19.40;47.20;;;;;;5058474;28;20216;-71
2023/12/28 12:16:58;;;;;;;1.90;1.80;;;18.90;49.30;;;;;;5057580;28;20438;-71
2023/12/28 12:19:25;;;;;;;3.93;2.10;;;17.60;50.00;;;;;;5073285;28;20408;-71
2023/12/28 12:21:52;;;;;;;4.33;2.20;;;17.20;51.20;;;;;;5073055;28;20409;-71
2023/12/28 12:24:18;;;;;;;13.07;2.20;;;17.00;53.40;;;;;;5060785;28;20837;-70
2023/12/28 12:26:46;;;;;;;3.90;2.03;;;17.20;54.40;;;;;;5065847;28;20405;-71
2023/12/28 12:29:11;;;;;;;5.13;1.73;;;17.80;53.90;;;;;;5060477;28;20416;-71
2023/12/28 12:31:41;;;;;;;7.50;1.80;;;17.90;54.00;;;;;;5061875;28;20436;-71
2023/12/28 12:34:10;;;;;;;3.70;1.90;;;18.40;54.70;;;;;;5067450;28;20705;-71
2023/12/28 12:36:35;;;;;;;4.13;2.30;;;18.50;53.80;;;;;;5069429;28;20420;-70
2023/12/28 12:39:02;;;;;;;5.57;1.60;;;18.20;52.60;;;;;;5048220;28;20455;-70
2023/12/28 12:41:28;;;;;;;5.33;1.80;;;18.00;52.80;;;;;;5047970;28;20545;-71
2023/12/28 12:43:56;;;;;;;2.63;1.20;;;18.60;53.30;;;;;;5071509;28;20433;-70
2023/12/28 12:46:23;;;;;;;2.53;1.60;;;19.30;53.00;;;;;;5063819;28;20206;-70
2023/12/28 12:48:56;;;;;;;2.90;1.50;;;19.10;51.10;;;;;;5046315;28;20438;-70
2023/12/28 12:51:21;;;;;;;2.23;1.47;;;18.80;51.90;;;;;;5056105;28;20534;-71